Decoded Metar for KEEN (KEENE/DILLANT in NH, USA) (IATA:EEN) | Meteo·Mobile Aviation Weather
aviador You're here:

KEEN Decoded Metar

KEENE/DILLANT in NH, USA
Report Time2019-07-22 17:56:00
UTC Time2019-07-22 18:45:18
Flight Rules vfr VFR
Wind010° at 08 kt
W.Decomp.*RWY 02: 8.0 kt HW 0.7 kt RCW
RWY 32: 3.4 kt HW 7.3 kt RCW
Visibility9999 m
Phenomena:N/A
Clouds:Scattered 044 Hf
Overcast 065 Hf
Expected CloudBase > 1,200 ft AGL from Temp-Dew spread
Ceiling6,500 ft
Temp21°C (ISA +7)
Dew Point18°C (83% RH)
AAT20.9°C
QNH1013 hPa
Density Alt1,578 ft
Elevation489 ft
Report Wrong Elevation
Raw Report
KEEN 221756Z AUTO 01008KT 10SM SCT044 OVC065 21/18 A2990 RMK AO2
RAE50 SLP127 P0001 60010 T02060183 10233 20194 58005 $=

Extra information for KEEN:More info

Metar Taf Metar & Taf Last 4 Metars F.Rules Stats Wind Profile Meteogram Temp Stats Airport Information Weather charts Add Link Nearby VenuesMetar ALERT Operation Metar Decoded Social comments

AIRNAV info for KEEN